Time;durP1;ratioP1;P1;durP2;ratioP2;P2;SDS_P1;SDS_P2;PMS_P1;PMS_P2;Temp;Humidity;BMP_temperature;BMP_pressure;BME280_temperature;BME280_humidity;BME280_pressure;Samples;Min_cycle;Max_cycle;Signal;HPM_P1;HPM_P2
2024/04/03 00:02:24;;;;;;;1999.90;999.90;;;13.90;99.90;;;;;;5034184;28;20039;-67
2024/04/03 00:04:50;;;;;;;1999.90;999.90;;;13.90;99.90;;;;;;5034057;28;20037;-67
2024/04/03 00:07:16;;;;;;;1999.90;999.90;;;13.70;99.90;;;;;;5033937;28;20056;-67
2024/04/03 00:09:41;;;;;;;1999.90;999.90;;;13.60;99.90;;;;;;5033650;28;20080;-74
2024/04/03 00:12:07;;;;;;;1999.90;999.90;;;13.60;99.90;;;;;;5033159;28;20033;-66
2024/04/03 00:14:33;;;;;;;1999.90;999.90;;;13.60;99.90;;;;;;5032547;28;20519;-67
2024/04/03 00:16:58;;;;;;;1999.90;999.90;;;13.60;99.90;;;;;;5033876;28;20056;-67
2024/04/03 00:19:24;;;;;;;1999.90;999.90;;;13.70;99.90;;;;;;5033417;28;20100;-67
2024/04/03 00:21:52;;;;;;;1999.90;999.90;;;13.80;99.90;;;;;;5033166;28;20083;-67
2024/04/03 00:24:18;;;;;;;1999.90;999.90;;;14.00;99.90;;;;;;5013775;28;20091;-67
2024/04/03 00:26:44;;;;;;;1999.90;999.90;;;14.20;99.90;;;;;;5013811;28;20536;-74
2024/04/03 00:29:10;;;;;;;1999.90;999.90;;;14.30;99.90;;;;;;5020876;28;20033;-67
2024/04/03 00:31:38;;;;;;;1999.90;999.90;;;14.30;99.90;;;;;;5033390;28;20108;-67
2024/04/03 00:34:04;;;;;;;1999.90;999.90;;;14.50;99.90;;;;;;5033159;28;20057;-69
2024/04/03 00:36:30;;;;;;;1999.90;999.90;;;14.60;99.90;;;;;;5033564;28;20053;-67
2024/04/03 00:38:55;;;;;;;1999.90;999.90;;;14.60;99.90;;;;;;5033403;28;20033;-67
2024/04/03 00:41:21;;;;;;;1999.90;999.90;;;14.80;99.90;;;;;;5033360;28;20033;-74
2024/04/03 00:43:48;;;;;;;1999.90;999.90;;;14.90;99.90;;;;;;5033413;28;20056;-67
2024/04/03 00:46:15;;;;;;;1999.90;999.90;;;15.00;99.90;;;;;;5033111;28;20039;-74
2024/04/03 00:48:42;;;;;;;1999.90;999.90;;;15.10;99.90;;;;;;5033357;28;20052;-74
2024/04/03 00:51:09;;;;;;;1999.90;999.90;;;15.20;99.90;;;;;;5033502;28;20615;-67
2024/04/03 00:53:36;;;;;;;1999.90;999.90;;;15.20;99.90;;;;;;5033121;28;20025;-67
2024/04/03 00:56:02;;;;;;;1999.90;999.90;;;15.20;99.90;;;;;;5033090;28;20499;-67
2024/04/03 00:58:27;;;;;;;1999.90;999.90;;;15.30;99.90;;;;;;5032844;28;20021;-67
2024/04/03 01:00:53;;;;;;;1999.90;999.90;;;15.30;99.90;;;;;;5033312;28;20029;-75
2024/04/03 01:03:18;;;;;;;1999.90;999.90;;;15.40;99.90;;;;;;5032658;28;20104;-67
2024/04/03 01:05:44;;;;;;;1999.90;999.90;;;15.40;99.90;;;;;;5033006;28;20152;-67
2024/04/03 01:08:09;;;;;;;1999.90;999.90;;;15.50;99.90;;;;;;5031456;28;20041;-67
2024/04/03 01:10:35;;;;;;;1999.90;999.90;;;15.50;99.90;;;;;;5032352;28;20029;-74
2024/04/03 01:13:01;;;;;;;1999.90;999.90;;;15.60;99.90;;;;;;5032926;28;20131;-67
2024/04/03 01:15:30;;;;;;;1999.90;999.90;;;15.70;99.90;;;;;;5031514;28;20032;-67
2024/04/03 01:17:55;;;;;;;1999.90;999.90;;;15.80;99.90;;;;;;5032932;28;20037;-67
2024/04/03 01:20:21;;;;;;;1999.90;999.90;;;15.90;99.90;;;;;;5032477;28;20025;-67
2024/04/03 01:22:47;;;;;;;1999.90;999.90;;;16.10;99.90;;;;;;5032408;28;20133;-67
2024/04/03 01:25:12;;;;;;;1999.90;999.90;;;16.20;99.90;;;;;;5032536;28;20025;-73
2024/04/03 01:27:38;;;;;;;1999.90;999.90;;;16.30;99.90;;;;;;5032676;28;20053;-67
2024/04/03 01:30:04;;;;;;;1999.90;999.90;;;16.40;99.90;;;;;;5032600;28;20048;-67
2024/04/03 01:32:30;;;;;;;1999.90;999.90;;;16.50;99.90;;;;;;5032349;28;20044;-68
2024/04/03 01:34:55;;;;;;;1999.90;999.90;;;16.60;99.90;;;;;;5032773;28;20112;-67
2024/04/03 01:37:21;;;;;;;1999.90;999.90;;;16.70;99.90;;;;;;5032354;28;20025;-67
2024/04/03 01:39:47;;;;;;;1999.90;999.90;;;16.70;99.90;;;;;;5032610;28;20101;-67
2024/04/03 01:42:13;;;;;;;1999.90;999.90;;;16.70;99.90;;;;;;5031750;28;20025;-67
2024/04/03 01:44:39;;;;;;;1999.90;999.90;;;16.70;99.90;;;;;;5032193;28;20037;-67
2024/04/03 01:47:05;;;;;;;1999.90;999.90;;;16.70;99.90;;;;;;5032195;28;20488;-74
2024/04/03 01:49:31;;;;;;;1999.90;999.90;;;16.60;99.90;;;;;;5032522;28;20032;-67
2024/04/03 01:51:56;;;;;;;1999.90;999.90;;;16.60;99.90;;;;;;5032564;28;20401;-67
2024/04/03 01:54:22;;;;;;;1999.90;999.90;;;16.60;99.90;;;;;;5032576;28;20082;-67
2024/04/03 01:56:48;;;;;;;1999.90;999.90;;;16.50;99.90;;;;;;5032397;28;20036;-74
2024/04/03 01:59:13;;;;;;;1999.90;999.90;;;16.50;99.90;;;;;;5032477;28;20021;-67
2024/04/03 02:01:39;;;;;;;1999.90;999.90;;;16.40;99.90;;;;;;5032382;28;20040;-68
2024/04/03 02:04:05;;;;;;;1999.90;999.90;;;16.40;99.90;;;;;;5032235;28;20021;-68
2024/04/03 02:06:31;;;;;;;1999.90;999.90;;;16.40;99.90;;;;;;5032336;28;20097;-74
2024/04/03 02:08:56;;;;;;;1999.90;999.90;;;16.30;99.90;;;;;;5032430;28;20438;-68
2024/04/03 02:11:22;;;;;;;1999.90;999.90;;;16.30;99.90;;;;;;5031896;28;20033;-68
2024/04/03 02:13:47;;;;;;;1999.90;999.90;;;16.20;99.90;;;;;;5032142;28;20409;-74
2024/04/03 02:16:13;;;;;;;1999.90;999.90;;;16.20;99.90;;;;;;5032177;28;20071;-68
2024/04/03 02:18:39;;;;;;;1999.90;999.90;;;16.10;99.90;;;;;;5031958;28;20045;-68
2024/04/03 02:21:05;;;;;;;1999.90;999.90;;;16.00;99.90;;;;;;5034364;28;20064;-68
2024/04/03 02:23:31;;;;;;;1999.90;999.90;;;16.00;99.90;;;;;;5035477;28;20029;-68
2024/04/03 02:25:57;;;;;;;1999.90;999.90;;;15.90;99.90;;;;;;5035605;28;20021;-68
2024/04/03 02:28:22;;;;;;;1999.90;999.90;;;15.90;99.90;;;;;;5035917;28;20105;-68
2024/04/03 02:30:48;;;;;;;1999.90;999.90;;;15.90;99.90;;;;;;5035731;28;20040;-67
2024/04/03 02:33:14;;;;;;;1999.90;999.90;;;15.80;99.90;;;;;;5034391;28;20071;-74
2024/04/03 02:35:39;;;;;;;1999.90;999.90;;;15.80;99.90;;;;;;5035684;28;20030;-74
2024/04/03 02:38:05;;;;;;;1999.90;999.90;;;15.70;99.90;;;;;;5035354;28;20074;-68
2024/04/03 02:40:31;;;;;;;1999.90;999.90;;;15.70;99.90;;;;;;5035867;28;20022;-68
2024/04/03 02:42:58;;;;;;;1999.90;999.90;;;15.70;99.90;;;;;;5036014;28;20064;-68
2024/04/03 02:45:23;;;;;;;1999.90;999.90;;;15.60;99.90;;;;;;5035527;28;20028;-68
2024/04/03 02:47:49;;;;;;;1999.90;999.90;;;15.60;99.90;;;;;;5034141;28;20396;-73
2024/04/03 02:50:15;;;;;;;1999.90;999.90;;;15.60;99.90;;;;;;5035277;28;20025;-68
2024/04/03 02:52:40;;;;;;;1999.90;999.90;;;15.60;99.90;;;;;;5035545;28;20044;-68
2024/04/03 02:55:06;;;;;;;1999.90;999.90;;;15.50;99.90;;;;;;5035707;28;20032;-68
2024/04/03 02:57:31;;;;;;;1999.90;999.90;;;15.50;99.90;;;;;;5035142;28;20022;-74
2024/04/03 02:59:57;;;;;;;1999.90;999.90;;;15.50;99.90;;;;;;5035628;28;20017;-67
2024/04/03 03:02:23;;;;;;;1999.90;999.90;;;15.50;99.90;;;;;;5035108;28;20029;-68
2024/04/03 03:04:49;;;;;;;1999.90;999.90;;;15.50;99.90;;;;;;5035317;28;20110;-68
2024/04/03 03:07:14;;;;;;;1999.90;999.90;;;15.40;99.90;;;;;;5035119;28;20029;-68
2024/04/03 03:09:40;;;;;;;1999.90;999.90;;;15.40;99.90;;;;;;5035173;28;20022;-75
2024/04/03 03:12:06;;;;;;;1999.90;999.90;;;15.40;99.90;;;;;;5034508;28;20447;-68
2024/04/03 03:14:32;;;;;;;1999.90;999.90;;;15.30;99.90;;;;;;5034936;28;20029;-74
2024/04/03 03:16:57;;;;;;;1999.90;999.90;;;15.30;99.90;;;;;;5035023;28;20057;-68
2024/04/03 03:19:24;;;;;;;1999.90;999.90;;;15.30;99.90;;;;;;5034731;28;20054;-74
2024/04/03 03:21:51;;;;;;;1999.90;999.90;;;15.30;99.90;;;;;;5034820;28;20132;-68
2024/04/03 03:24:19;;;;;;;1999.90;999.90;;;15.20;99.90;;;;;;5034464;28;20531;-68
2024/04/03 03:26:45;;;;;;;1999.90;999.90;;;15.20;99.90;;;;;;5033164;28;20510;-68
2024/04/03 03:29:10;;;;;;;1999.90;999.90;;;15.10;99.90;;;;;;5035255;28;20029;-73
2024/04/03 03:31:36;;;;;;;1999.90;999.90;;;15.10;99.90;;;;;;5033987;28;20032;-73
2024/04/03 03:34:02;;;;;;;1999.90;999.90;;;15.10;99.90;;;;;;5034161;28;20033;-68
2024/04/03 03:36:27;;;;;;;1999.90;999.90;;;15.10;99.90;;;;;;5034893;28;20033;-68
2024/04/03 03:38:53;;;;;;;1999.90;999.90;;;15.00;99.90;;;;;;5034532;28;20441;-68
2024/04/03 03:41:18;;;;;;;1999.90;999.90;;;15.00;99.90;;;;;;5034356;28;20124;-67
2024/04/03 03:43:44;;;;;;;1999.90;999.90;;;14.90;99.90;;;;;;5034838;28;20022;-67
2024/04/03 03:46:11;;;;;;;1999.90;999.90;;;14.80;99.90;;;;;;5034109;28;20029;-75
2024/04/03 03:54:05;;;;;;;1999.90;999.90;;;14.60;99.90;;;;;;5034213;28;20464;-68
2024/04/03 03:56:31;;;;;;;1999.90;999.90;;;14.60;99.90;;;;;;5033373;28;20022;-68
2024/04/03 03:58:56;;;;;;;1999.90;999.90;;;14.60;99.90;;;;;;5034264;28;20079;-68
2024/04/03 04:01:22;;;;;;;1999.90;999.90;;;14.60;99.90;;;;;;5034530;28;20500;-68
2024/04/03 04:03:48;;;;;;;1999.90;999.90;;;14.50;99.90;;;;;;5034183;28;20499;-74
2024/04/03 04:06:13;;;;;;;1999.90;999.90;;;14.40;99.90;;;;;;5032791;28;20541;-68
2024/04/03 04:08:39;;;;;;;1999.90;999.90;;;14.40;99.90;;;;;;5033667;28;20039;-68
2024/04/03 04:11:05;;;;;;;1999.90;999.90;;;14.30;99.90;;;;;;5033664;28;20029;-68
2024/04/03 04:13:30;;;;;;;1999.90;999.90;;;14.20;99.90;;;;;;5033861;28;20032;-68
2024/04/03 04:16:01;;;;;;;1999.90;999.90;;;14.20;99.90;;;;;;5034024;28;20022;-68
2024/04/03 04:18:26;;;;;;;1999.90;999.90;;;14.20;99.90;;;;;;5033871;28;20120;-68
2024/04/03 04:20:55;;;;;;;1999.90;999.90;;;14.20;99.90;;;;;;5033385;28;20564;-68
2024/04/03 04:23:21;;;;;;;1999.90;999.90;;;14.20;99.90;;;;;;5033453;28;20033;-74
2024/04/03 04:26:01;;;;;;;1999.90;999.90;;;14.10;99.90;;;;;;5033246;28;20037;-69
2024/04/03 04:28:30;;;;;;;1999.90;999.90;;;14.10;99.90;;;;;;5033721;28;20539;-68
2024/04/03 04:31:03;;;;;;;1999.90;999.90;;;14.10;99.90;;;;;;5033324;28;20026;-68
2024/04/03 04:33:29;;;;;;;1999.90;999.90;;;14.00;99.90;;;;;;5033566;28;20056;-68
2024/04/03 04:35:56;;;;;;;1999.90;999.90;;;14.00;99.90;;;;;;5033726;28;20037;-74
2024/04/03 04:38:23;;;;;;;1999.90;999.90;;;14.00;99.90;;;;;;5033413;28;20026;-69
2024/04/03 04:40:57;;;;;;;1999.90;999.90;;;14.10;99.90;;;;;;5033495;28;20021;-68
2024/04/03 04:43:23;;;;;;;1999.90;999.90;;;14.10;99.90;;;;;;5032469;28;20026;-75
2024/04/03 04:45:57;;;;;;;1999.90;999.90;;;14.10;99.90;;;;;;5032964;28;20070;-68
2024/04/03 04:48:24;;;;;;;1999.90;999.90;;;14.10;99.90;;;;;;5033448;28;20025;-74
2024/04/03 04:50:53;;;;;;;1999.90;999.90;;;14.20;99.90;;;;;;5033142;28;20120;-68
2024/04/03 04:53:19;;;;;;;1999.90;999.90;;;14.20;99.90;;;;;;5032866;28;20018;-68
2024/04/03 04:55:56;;;;;;;1999.90;999.90;;;14.20;99.90;;;;;;5032926;28;20026;-68
2024/04/03 04:58:25;;;;;;;1999.90;999.90;;;14.30;99.90;;;;;;5032713;28;20025;-68
2024/04/03 05:01:00;;;;;;;1999.90;999.90;;;14.30;99.90;;;;;;5033343;28;20033;-68
2024/04/03 05:03:26;;;;;;;1999.90;999.90;;;14.30;99.90;;;;;;5031850;28;20021;-68
2024/04/03 05:05:52;;;;;;;1999.90;999.90;;;14.30;99.90;;;;;;5032731;28;20443;-68
2024/04/03 05:08:20;;;;;;;1999.90;999.90;;;14.30;99.90;;;;;;5032656;28;20485;-68
2024/04/03 05:10:56;;;;;;;1999.90;999.90;;;14.40;99.90;;;;;;5032689;28;20022;-68
2024/04/03 05:13:21;;;;;;;1999.90;999.90;;;14.40;99.90;;;;;;5013332;28;20022;-68
2024/04/03 05:15:47;;;;;;;1999.90;999.90;;;14.40;99.90;;;;;;5013101;28;20030;-73
2024/04/03 05:18:13;;;;;;;1999.90;999.90;;;14.40;99.90;;;;;;5012731;28;20057;-68
2024/04/03 05:20:39;;;;;;;1999.90;999.90;;;14.40;99.90;;;;;;5029721;28;20219;-68
2024/04/03 05:23:05;;;;;;;1999.90;999.90;;;14.40;99.90;;;;;;5032573;28;20032;-68
2024/04/03 05:25:31;;;;;;;1999.90;999.90;;;14.40;99.90;;;;;;5032556;28;20037;-70
2024/04/03 05:27:56;;;;;;;1999.90;999.90;;;14.40;99.90;;;;;;5032671;28;20032;-68
2024/04/03 05:30:22;;;;;;;1999.90;999.90;;;14.40;99.90;;;;;;5031108;28;20025;-68
2024/04/03 05:32:48;;;;;;;1999.90;999.90;;;14.40;99.90;;;;;;5028376;28;20078;-68
2024/04/03 05:35:17;;;;;;;1999.90;999.90;;;14.40;99.90;;;;;;5027059;28;20439;-71
2024/04/03 05:37:46;;;;;;;1999.90;999.90;;;14.30;99.90;;;;;;5026382;28;20076;-68
2024/04/03 05:40:12;;;;;;;1999.90;999.90;;;14.40;99.90;;;;;;5034832;28;20462;-68
2024/04/03 05:42:38;;;;;;;1999.90;999.90;;;14.40;99.90;;;;;;5034811;28;20040;-75
2024/04/03 05:45:05;;;;;;;1999.90;999.90;;;14.30;99.90;;;;;;5034298;28;20428;-75
2024/04/03 05:47:32;;;;;;;1999.90;999.90;;;14.30;99.90;;;;;;5037711;28;20493;-68
2024/04/03 05:50:05;;;;;;;1999.90;999.90;;;14.30;99.90;;;;;;5032111;28;20577;-69
2024/04/03 05:52:30;;;;;;;1999.90;999.90;;;14.30;99.90;;;;;;5031257;28;20036;-68
2024/04/03 05:54:56;;;;;;;1999.90;999.90;;;14.30;99.90;;;;;;5035109;28;20343;-75
2024/04/03 05:57:22;;;;;;;1999.90;999.90;;;14.30;99.90;;;;;;5036808;28;20025;-69
2024/04/03 05:59:47;;;;;;;1999.90;999.90;;;14.30;99.90;;;;;;5035668;28;20032;-76
2024/04/03 06:02:13;;;;;;;1999.90;999.90;;;14.30;99.90;;;;;;5036155;28;20029;-75
2024/04/03 06:04:39;;;;;;;1999.90;999.90;;;14.30;99.90;;;;;;5039359;28;20082;-69
2024/04/03 06:07:05;;;;;;;1999.90;999.90;;;14.30;99.90;;;;;;5054403;28;20044;-69
2024/04/03 06:09:31;;;;;;;1999.90;999.90;;;14.30;99.90;;;;;;5046039;28;20033;-69
2024/04/03 06:11:57;;;;;;;1999.90;999.90;;;14.30;99.90;;;;;;5034685;28;20029;-68
2024/04/03 06:14:23;;;;;;;1999.90;999.90;;;14.30;99.90;;;;;;5033954;28;20026;-74
2024/04/03 06:16:48;;;;;;;1999.90;999.90;;;14.30;99.90;;;;;;5034967;28;20086;-69
2024/04/03 06:19:15;;;;;;;1999.90;999.90;;;14.30;99.90;;;;;;5031339;28;20049;-74
2024/04/03 06:21:41;;;;;;;1999.90;999.90;;;14.40;99.90;;;;;;5033389;28;20030;-75
2024/04/03 06:24:07;;;;;;;1999.90;999.90;;;14.40;99.90;;;;;;5033247;28;20488;-75
2024/04/03 06:26:33;;;;;;;1999.90;999.90;;;14.40;99.90;;;;;;5038037;28;20032;-74
2024/04/03 06:28:59;;;;;;;1999.90;999.90;;;14.40;99.90;;;;;;5048658;28;20085;-70
2024/04/03 06:31:30;;;;;;;1999.90;999.90;;;14.40;99.90;;;;;;5031969;28;20025;-68
2024/04/03 06:33:58;;;;;;;1999.90;999.90;;;14.40;99.90;;;;;;5031482;28;20488;-68
2024/04/03 06:36:24;;;;;;;1999.90;999.90;;;14.40;99.90;;;;;;5029351;28;20018;-74
2024/04/03 06:38:50;;;;;;;1999.90;999.90;;;14.30;99.90;;;;;;5037598;28;20026;-75
2024/04/03 06:41:15;;;;;;;1999.90;999.90;;;14.30;99.90;;;;;;5031853;28;20037;-74
2024/04/03 06:43:41;;;;;;;1999.90;999.90;;;14.30;99.90;;;;;;5039982;28;20505;-74
2024/04/03 06:46:06;;;;;;;1999.90;999.90;;;14.40;99.90;;;;;;5037181;28;20025;-68
2024/04/03 06:48:32;;;;;;;1999.90;999.90;;;14.40;99.90;;;;;;5032656;28;20025;-74
2024/04/03 06:50:58;;;;;;;1999.90;999.90;;;14.40;99.90;;;;;;5033196;28;20045;-74
2024/04/03 06:53:23;;;;;;;1999.90;999.90;;;14.50;99.90;;;;;;5033535;28;20103;-75
2024/04/03 06:56:00;;;;;;;1999.90;999.90;;;14.50;99.90;;;;;;5033568;28;20384;-68
2024/04/03 06:58:41;;;;;;;1999.90;999.90;;;14.50;99.90;;;;;;5027987;28;20496;-68
2024/04/03 07:01:08;;;;;;;1999.90;999.90;;;14.60;99.90;;;;;;5031094;28;20025;-67
2024/04/03 07:03:33;;;;;;;1999.90;999.90;;;14.60;99.90;;;;;;5048513;28;20026;-73
2024/04/03 07:06:00;;;;;;;1999.90;999.90;;;14.60;99.90;;;;;;5031582;28;20392;-74
2024/04/03 07:08:26;;;;;;;1999.90;999.90;;;14.70;99.90;;;;;;5032957;28;20041;-67
2024/04/03 07:10:52;;;;;;;1999.90;999.90;;;14.60;99.90;;;;;;5033412;28;20037;-74
2024/04/03 07:13:18;;;;;;;1999.90;999.90;;;14.50;99.90;;;;;;5031480;28;20412;-67
2024/04/03 07:15:50;;;;;;;1999.90;999.90;;;14.60;99.90;;;;;;5031633;28;20025;-67
2024/04/03 07:18:17;;;;;;;1999.90;999.90;;;14.60;99.90;;;;;;5032586;28;20127;-73
2024/04/03 07:20:55;;;;;;;1999.90;999.90;;;14.60;99.90;;;;;;5032765;28;20034;-73
2024/04/03 07:23:26;;;;;;;1999.90;999.90;;;14.60;99.90;;;;;;5032398;28;20029;-68
2024/04/03 07:25:56;;;;;;;1999.90;999.90;;;14.60;99.90;;;;;;5032465;28;20531;-68
2024/04/03 07:28:23;;;;;;;1999.90;999.90;;;14.60;99.90;;;;;;5032085;28;20083;-68
2024/04/03 07:30:49;;;;;;;1999.90;999.90;;;14.50;99.90;;;;;;5045570;28;20029;-67
2024/04/03 07:33:15;;;;;;;1999.90;999.90;;;14.60;99.90;;;;;;5039477;28;20373;-73
2024/04/03 07:35:41;;;;;;;1999.90;999.90;;;14.60;99.90;;;;;;5029879;28;20095;-73
2024/04/03 07:38:07;;;;;;;1999.90;999.90;;;14.60;99.90;;;;;;5031458;28;20024;-73
2024/04/03 07:40:36;;;;;;;1999.90;999.90;;;14.60;99.90;;;;;;5031974;28;20041;-67
2024/04/03 07:43:02;;;;;;;1999.90;999.90;;;14.50;99.90;;;;;;5030501;28;20029;-65
2024/04/03 07:45:28;;;;;;;1999.90;999.90;;;14.50;99.90;;;;;;5039136;28;20607;-73
2024/04/03 07:47:53;;;;;;;1999.90;999.90;;;14.40;99.90;;;;;;5032596;28;20120;-68
2024/04/03 07:50:20;;;;;;;1999.90;999.90;;;14.40;99.90;;;;;;5034809;28;20112;-68
2024/04/03 07:52:45;;;;;;;1999.90;999.90;;;14.40;99.90;;;;;;5033424;28;20368;-68
2024/04/03 07:55:12;;;;;;;1999.90;999.90;;;14.50;99.90;;;;;;5029275;28;20036;-74
2024/04/03 07:57:39;;;;;;;1999.90;999.90;;;14.70;99.90;;;;;;5030323;28;20140;-74
2024/04/03 08:00:08;;;;;;;1999.90;999.90;;;14.70;99.90;;;;;;5031201;28;20041;-73
2024/04/03 08:02:38;;;;;;;1999.90;999.90;;;14.70;99.90;;;;;;5030995;28;20047;-67
2024/04/03 08:05:05;;;;;;;1999.90;999.90;;;14.90;99.90;;;;;;5027506;28;20032;-73
2024/04/03 08:07:31;;;;;;;1999.90;999.90;;;14.90;99.90;;;;;;5030366;28;20432;-68
2024/04/03 08:10:00;;;;;;;1999.90;999.90;;;14.60;99.90;;;;;;5031223;28;20088;-74
2024/04/03 08:12:26;;;;;;;1999.90;999.90;;;15.40;99.90;;;;;;5029978;28;20491;-74
2024/04/03 08:14:52;;;;;;;1999.90;999.90;;;17.10;99.90;;;;;;5033583;28;20026;-74
2024/04/03 08:17:18;;;;;;;1999.90;999.90;;;17.90;99.90;;;;;;5029131;28;20034;-68
2024/04/03 08:19:43;;;;;;;1999.90;999.90;;;18.70;99.90;;;;;;5029530;28;20107;-67
2024/04/03 08:22:09;;;;;;;1999.90;999.90;;;17.60;99.90;;;;;;5030089;28;20088;-74
2024/04/03 08:24:37;;;;;;;1999.90;999.90;;;18.00;99.90;;;;;;5032649;28;20618;-73
2024/04/03 08:27:03;;;;;;;1999.90;999.90;;;18.50;99.90;;;;;;5030093;28;20550;-74
2024/04/03 08:29:32;;;;;;;1999.90;999.90;;;18.90;99.90;;;;;;5044116;28;20088;-68
2024/04/03 08:31:59;;;;;;;1999.90;999.90;;;20.10;99.90;;;;;;5037681;28;20047;-69
2024/04/03 08:34:24;;;;;;;1999.90;999.90;;;19.40;99.90;;;;;;5030266;28;20044;-75
2024/04/03 08:36:51;;;;;;;1999.90;999.90;;;18.40;99.90;;;;;;5036936;28;20532;-67
2024/04/03 08:39:17;;;;;;;1999.90;999.90;;;18.60;99.90;;;;;;5033827;28;20029;-69
2024/04/03 08:41:43;;;;;;;1999.90;999.90;;;16.70;99.90;;;;;;5038900;28;20399;-68
2024/04/03 08:44:09;;;;;;;1999.90;999.90;;;15.20;99.90;;;;;;5033363;28;20555;-74
2024/04/03 08:46:37;;;;;;;1999.90;999.90;;;14.70;99.90;;;;;;5045056;28;20031;-74
2024/04/03 08:49:07;;;;;;;1999.90;999.90;;;14.50;99.90;;;;;;5033260;28;20045;-73
2024/04/03 08:51:33;;;;;;;1999.90;999.90;;;14.20;99.90;;;;;;5042191;28;20502;-67
2024/04/03 08:54:07;;;;;;;1999.90;999.90;;;14.10;99.90;;;;;;5039426;28;20081;-73
2024/04/03 08:56:33;;;;;;;1999.90;999.90;;;14.10;99.90;;;;;;5043746;28;20029;-66
2024/04/03 08:58:59;;;;;;;1999.90;999.90;;;14.20;99.90;;;;;;5033471;28;20064;-73
2024/04/03 09:01:25;;;;;;;1999.90;999.90;;;14.30;99.90;;;;;;5040738;28;20028;-68
2024/04/03 09:03:51;;;;;;;1999.90;999.90;;;15.30;99.90;;;;;;5038199;28;20091;-74
2024/04/03 09:06:16;;;;;;;1999.90;999.90;;;15.40;99.90;;;;;;5031304;28;20037;-68
2024/04/03 09:08:43;;;;;;;1999.90;999.90;;;15.30;99.90;;;;;;5039039;28;20029;-67
2024/04/03 09:11:10;;;;;;;1999.90;999.90;;;15.20;99.90;;;;;;5035766;28;20031;-74
2024/04/03 09:13:36;;;;;;;1999.90;999.90;;;15.20;99.90;;;;;;5035720;28;20104;-74
2024/04/03 09:16:02;;;;;;;1999.90;999.90;;;15.40;99.90;;;;;;5040377;28;20096;-72
2024/04/03 09:18:29;;;;;;;1999.90;999.90;;;15.30;99.90;;;;;;5035076;28;20562;-66
2024/04/03 09:20:55;;;;;;;1999.90;999.90;;;15.60;99.90;;;;;;5030891;28;20029;-67
2024/04/03 09:23:21;;;;;;;1999.90;999.90;;;15.60;99.90;;;;;;5026961;28;20481;-67
2024/04/03 09:25:47;;;;;;;1999.90;999.90;;;15.30;99.90;;;;;;5032787;28;20480;-67
2024/04/03 09:28:13;;;;;;;1999.90;999.90;;;15.80;99.90;;;;;;5041788;28;20048;-67
2024/04/03 09:30:49;;;;;;;1999.90;999.90;;;15.80;99.90;;;;;;5034545;28;20029;-66
2024/04/03 09:33:16;;;;;;;1999.90;999.90;;;15.80;99.90;;;;;;5030102;28;20052;-67
2024/04/03 09:35:43;;;;;;;1999.90;999.90;;;15.70;99.90;;;;;;5029479;28;20033;-67
2024/04/03 09:38:14;;;;;;;1999.90;999.90;;;16.80;99.90;;;;;;5033799;28;20106;-67
2024/04/03 09:40:40;;;;;;;1999.90;999.90;;;17.70;99.90;;;;;;5045129;28;20534;-67
2024/04/03 09:43:19;;;;;;;1999.90;999.90;;;17.10;99.90;;;;;;5032772;28;20403;-73
2024/04/03 09:45:51;;;;;;;1999.90;999.90;;;15.90;99.90;;;;;;5038378;28;20033;-68
2024/04/03 09:48:26;;;;;;;1999.90;999.90;;;16.10;99.90;;;;;;5036685;28;20108;-67
2024/04/03 09:50:52;;;;;;;1999.90;999.90;;;16.10;99.90;;;;;;5044210;28;20125;-67
2024/04/03 09:53:20;;;;;;;1999.90;999.90;;;15.90;99.90;;;;;;5033941;28;20112;-74
2024/04/03 09:55:47;;;;;;;1999.90;999.90;;;15.90;99.90;;;;;;5040192;28;20032;-68
2024/04/03 09:58:14;;;;;;;1999.90;999.90;;;16.20;99.90;;;;;;5041257;28;20032;-67
2024/04/03 10:00:49;;;;;;;1999.90;999.90;;;15.80;99.90;;;;;;5034438;28;20323;-67
2024/04/03 10:03:34;;;;;;;1999.90;999.90;;;16.00;99.90;;;;;;5026745;28;20037;-74
2024/04/03 10:06:12;;;;;;;1999.90;999.90;;;16.10;99.90;;;;;;5038355;28;20104;-74
2024/04/03 10:08:39;;;;;;;1999.90;999.90;;;16.60;99.90;;;;;;5045014;28;20035;-75
2024/04/03 10:11:12;;;;;;;1999.90;999.90;;;17.00;99.90;;;;;;5031994;28;20491;-67
2024/04/03 10:13:39;;;;;;;1999.90;999.90;;;17.50;99.90;;;;;;5032740;28;20075;-74
2024/04/03 10:16:15;;;;;;;1999.90;999.90;;;17.40;99.90;;;;;;5039873;28;20029;-67
2024/04/03 10:18:45;;;;;;;1999.90;999.90;;;17.90;99.90;;;;;;5029335;28;20080;-73
2024/04/03 10:21:12;;;;;;;1999.90;999.90;;;18.00;99.90;;;;;;5019857;28;20064;-67
2024/04/03 10:23:50;;;;;;;1999.90;999.90;;;17.00;99.90;;;;;;5036053;28;20427;-66
2024/04/03 10:26:20;;;;;;;1999.90;999.90;;;16.60;99.90;;;;;;5035841;28;20041;-66
2024/04/03 10:28:46;;;;;;;1999.90;999.90;;;17.20;99.90;;;;;;5026122;28;20449;-67
2024/04/03 10:31:20;;;;;;;1999.90;999.90;;;17.10;99.90;;;;;;5022807;28;20060;-74
2024/04/03 10:33:49;;;;;;;1999.90;999.90;;;16.50;99.90;;;;;;5018494;28;20105;-74
2024/04/03 10:36:16;;;;;;;1999.90;999.90;;;16.70;99.90;;;;;;5038139;28;20026;-67
2024/04/03 10:38:42;;;;;;;1999.90;999.90;;;17.30;99.90;;;;;;5034447;28;20025;-68
2024/04/03 10:41:08;;;;;;;1999.90;999.90;;;17.00;99.90;;;;;;5022782;28;20031;-67
2024/04/03 10:43:35;;;;;;;1999.90;999.90;;;16.70;99.90;;;;;;5033321;28;20033;-68
2024/04/03 10:46:01;;;;;;;1999.90;999.90;;;16.80;99.90;;;;;;5041892;28;20033;-71
2024/04/03 10:48:27;;;;;;;1999.90;999.90;;;16.60;99.90;;;;;;5040042;28;20044;-67
2024/04/03 10:50:53;;;;;;;1999.90;999.90;;;16.70;99.90;;;;;;5036193;28;20038;-68
2024/04/03 10:53:20;;;;;;;1999.90;999.90;;;16.70;99.90;;;;;;5032728;28;20519;-67
2024/04/03 10:55:46;;;;;;;1999.90;999.90;;;16.60;99.90;;;;;;5043945;28;20478;-67
2024/04/03 10:58:12;;;;;;;1999.90;999.90;;;16.60;99.90;;;;;;5029863;28;20374;-70
2024/04/03 11:00:43;;;;;;;1999.90;999.90;;;16.30;99.90;;;;;;5030538;28;20088;-72
2024/04/03 11:03:10;;;;;;;1999.90;999.90;;;15.90;99.90;;;;;;5033181;28;20041;-72
2024/04/03 11:05:37;;;;;;;1999.90;999.90;;;15.80;99.90;;;;;;5029921;28;20029;-67
2024/04/03 11:08:04;;;;;;;1999.90;999.90;;;15.80;99.90;;;;;;5030296;28;20034;-68
2024/04/03 11:10:30;;;;;;;1999.90;999.90;;;15.80;99.90;;;;;;5034969;28;20041;-74
2024/04/03 11:13:10;;;;;;;1999.90;999.90;;;15.80;99.90;;;;;;5035461;28;20038;-68
2024/04/03 11:15:37;;;;;;;1999.90;999.90;;;15.50;99.90;;;;;;5035769;28;20025;-73
2024/04/03 11:18:03;;;;;;;1999.90;999.90;;;15.40;99.90;;;;;;5027860;28;20126;-67
2024/04/03 11:20:34;;;;;;;1999.90;999.90;;;15.50;99.90;;;;;;5033702;28;20103;-66
2024/04/03 11:23:00;;;;;;;1999.90;999.90;;;15.50;99.90;;;;;;5026517;28;20022;-73
2024/04/03 11:25:26;;;;;;;1999.90;999.90;;;15.30;99.90;;;;;;5032431;28;20046;-67
2024/04/03 11:27:53;;;;;;;1999.90;999.90;;;15.30;99.90;;;;;;5045260;28;20025;-75
2024/04/03 11:30:19;;;;;;;1999.90;999.90;;;15.10;99.90;;;;;;5037773;28;20044;-68
2024/04/03 11:32:45;;;;;;;1999.90;999.90;;;15.30;99.90;;;;;;5029089;28;20071;-72
2024/04/03 11:35:11;;;;;;;1999.90;999.90;;;15.30;99.90;;;;;;5047817;28;20029;-67
2024/04/03 11:37:37;;;;;;;1999.90;999.90;;;15.30;99.90;;;;;;5036174;28;20029;-67
2024/04/03 11:40:06;;;;;;;1999.90;999.90;;;15.10;99.90;;;;;;5036182;28;20507;-74
2024/04/03 11:42:33;;;;;;;1999.90;999.90;;;15.10;99.90;;;;;;5032824;28;20041;-68
2024/04/03 11:44:59;;;;;;;1999.90;999.90;;;15.40;99.90;;;;;;5045182;28;20033;-68
2024/04/03 11:47:25;;;;;;;1999.90;999.90;;;15.60;99.90;;;;;;5034660;28;20511;-68
2024/04/03 11:49:50;;;;;;;1999.90;999.90;;;16.10;99.90;;;;;;5036014;28;20037;-67
2024/04/03 11:52:16;;;;;;;1999.90;999.90;;;16.70;99.90;;;;;;5034661;28;20476;-74
2024/04/03 11:54:43;;;;;;;1999.90;999.90;;;16.70;99.90;;;;;;5034304;28;20555;-74
2024/04/03 11:57:09;;;;;;;1999.90;999.90;;;16.60;99.90;;;;;;5039941;28;20033;-72
2024/04/03 11:59:35;;;;;;;1999.90;999.90;;;16.00;99.90;;;;;;5044738;28;20026;-67
2024/04/03 12:02:04;;;;;;;1999.90;999.90;;;16.10;99.90;;;;;;5033638;28;20033;-67
2024/04/03 12:04:31;;;;;;;1999.90;999.90;;;16.50;99.90;;;;;;5039871;28;20845;-66